This is the latest recevied weather packets stored in our database for station/object EA1ZE. If no packets are shown the sender has not sent any weather packets the latest 10 day(s).
| Time | Temp. | Humidity | Pressure | Rain* | Wind** | Luminosity | Snow |
|---|---|---|---|---|---|---|---|
| 1787407230 | 28.89° C | 34% | 1011.3 hPa | 0 mm | - | - | - |
| 1787406335 | 29.44° C | 33% | 1011.3 hPa | 0 mm | - | - | - |
| 1787405425 | 29.44° C | 35% | 1011.5 hPa | 0 mm | - | - | - |
| 1787404523 | 28.89° C | 35% | 1011.8 hPa | 0 mm | - | - | - |
| 1787403623 | 28.89° C | 35% | 1011.9 hPa | 0 mm | - | - | - |
| 1787402721 | 28.89° C | 35% | 1012 hPa | 0 mm | - | - | - |
| 1787401827 | 28.89° C | 36% | 1012 hPa | 0 mm | - | - | - |
| 1787400921 | 28.89° C | 36% | 1012.2 hPa | 0 mm | - | - | - |
| 1787400018 | 28.33° C | 39% | 1012.3 hPa | 0 mm | - | - | - |
| 1787399114 | 28.33° C | 39% | 1012.4 hPa | 0 mm | - | - | - |
| 1787398209 | 27.22° C | 41% | 1012.5 hPa | 0 mm | - | - | - |
| 1787397309 | 26.67° C | 43% | 1012.7 hPa | 0 mm | - | - | - |
| 1787396404 | 26.67° C | 44% | 1012.9 hPa | 0 mm | - | - | - |
| 1787395571 | - | - | 1013 hPa | 0 mm | - | - | - |
| 1787394657 | 25° C | 49% | 1013.2 hPa | 0 mm | - | - | - |
| 1787393754 | 24.44° C | 50% | 1013.3 hPa | 0 mm | - | - | - |
| 1787392851 | 23.89° C | 52% | 1013.5 hPa | 0 mm | - | - | - |
| 1787391951 | 22.78° C | 55% | 1013.5 hPa | 0 mm | - | - | - |
| 1787391066 | 22.22° C | 57% | 1013.6 hPa | 0 mm | - | - | - |
| 1787390139 | 21.11° C | 59% | 1013.7 hPa | 0 mm | - | - | - |
| 1787389238 | 20.56° C | 61% | 1013.7 hPa | 0 mm | - | - | - |
| 1787388332 | 19.44° C | 63% | 1013.7 hPa | 0 mm | - | - | - |
| 1787387434 | 18.89° C | 65% | 1013.9 hPa | 0 mm | - | - | - |
| 1787386525 | 18.33° C | 67% | 1014 hPa | 0 mm | - | - | - |
| 1787385623 | 17.78° C | 69% | 1014 hPa | 0 mm | - | - | - |
* Rain latest hour (hover to see other rain measurements)
** Current wind speed in m/s (hover to see current wind gust speed)